sensor_id;sensor_type;location;lat;lon;timestamp;P1;durP1;ratioP1;P2;durP2;ratioP2
50128;SDS011;36026;45.478;9.224;2022-12-20T00:00:54;48.00;;;27.10;;
50128;SDS011;36026;45.478;9.224;2022-12-20T00:03:56;46.80;;;28.77;;
50128;SDS011;36026;45.478;9.224;2022-12-20T00:07:00;47.28;;;28.00;;
50128;SDS011;36026;45.478;9.224;2022-12-20T00:10:02;46.60;;;28.15;;
50128;SDS011;36026;45.478;9.224;2022-12-20T00:13:04;51.25;;;28.70;;
50128;SDS011;36026;45.478;9.224;2022-12-20T00:16:06;47.33;;;28.92;;
50128;SDS011;36026;45.478;9.224;2022-12-20T00:19:09;50.97;;;29.00;;
50128;SDS011;36026;45.478;9.224;2022-12-20T00:22:13;49.50;;;28.85;;
50128;SDS011;36026;45.478;9.224;2022-12-20T00:25:15;50.20;;;29.38;;
50128;SDS011;36026;45.478;9.224;2022-12-20T00:28:16;52.55;;;30.17;;
50128;SDS011;36026;45.478;9.224;2022-12-20T00:31:19;50.85;;;30.92;;
50128;SDS011;36026;45.478;9.224;2022-12-20T00:34:21;54.90;;;30.15;;
50128;SDS011;36026;45.478;9.224;2022-12-20T00:37:24;50.97;;;30.50;;
50128;SDS011;36026;45.478;9.224;2022-12-20T00:40:26;48.75;;;28.35;;
50128;SDS011;36026;45.478;9.224;2022-12-20T00:43:28;50.33;;;29.40;;
50128;SDS011;36026;45.478;9.224;2022-12-20T00:46:31;52.70;;;31.00;;
50128;SDS011;36026;45.478;9.224;2022-12-20T00:49:33;50.65;;;29.50;;
50128;SDS011;36026;45.478;9.224;2022-12-20T00:52:36;51.92;;;28.98;;
50128;SDS011;36026;45.478;9.224;2022-12-20T00:55:39;48.38;;;29.48;;
50128;SDS011;36026;45.478;9.224;2022-12-20T00:58:42;49.85;;;28.90;;
50128;SDS011;36026;45.478;9.224;2022-12-20T01:01:44;48.95;;;28.65;;
50128;SDS011;36026;45.478;9.224;2022-12-20T01:04:47;48.22;;;29.40;;
50128;SDS011;36026;45.478;9.224;2022-12-20T01:07:50;48.80;;;29.95;;
50128;SDS011;36026;45.478;9.224;2022-12-20T01:10:59;50.45;;;28.98;;
50128;SDS011;36026;45.478;9.224;2022-12-20T01:14:02;47.33;;;28.15;;
50128;SDS011;36026;45.478;9.224;2022-12-20T01:17:06;47.33;;;27.42;;
50128;SDS011;36026;45.478;9.224;2022-12-20T01:20:07;45.70;;;28.65;;
50128;SDS011;36026;45.478;9.224;2022-12-20T01:23:11;40.88;;;25.48;;
50128;SDS011;36026;45.478;9.224;2022-12-20T01:26:13;47.05;;;27.50;;
50128;SDS011;36026;45.478;9.224;2022-12-20T01:29:16;50.10;;;29.73;;
50128;SDS011;36026;45.478;9.224;2022-12-20T01:32:18;48.90;;;28.00;;
50128;SDS011;36026;45.478;9.224;2022-12-20T01:35:20;46.95;;;27.95;;
50128;SDS011;36026;45.478;9.224;2022-12-20T01:38:23;46.15;;;27.63;;
50128;SDS011;36026;45.478;9.224;2022-12-20T01:41:25;45.15;;;26.67;;
50128;SDS011;36026;45.478;9.224;2022-12-20T01:47:52;42.05;;;27.08;;
50128;SDS011;36026;45.478;9.224;2022-12-20T01:50:54;42.90;;;27.00;;
50128;SDS011;36026;45.478;9.224;2022-12-20T01:53:57;43.95;;;26.10;;
50128;SDS011;36026;45.478;9.224;2022-12-20T01:57:01;43.83;;;27.38;;
50128;SDS011;36026;45.478;9.224;2022-12-20T02:00:05;47.05;;;27.90;;
50128;SDS011;36026;45.478;9.224;2022-12-20T02:03:09;47.17;;;27.77;;
50128;SDS011;36026;45.478;9.224;2022-12-20T02:06:14;44.63;;;26.13;;
50128;SDS011;36026;45.478;9.224;2022-12-20T02:09:18;43.33;;;26.33;;
50128;SDS011;36026;45.478;9.224;2022-12-20T02:12:20;40.38;;;24.33;;
50128;SDS011;36026;45.478;9.224;2022-12-20T02:15:28;44.40;;;25.92;;
50128;SDS011;36026;45.478;9.224;2022-12-20T02:18:33;43.33;;;25.98;;
50128;SDS011;36026;45.478;9.224;2022-12-20T02:21:38;40.38;;;25.30;;
50128;SDS011;36026;45.478;9.224;2022-12-20T02:25:00;41.75;;;25.48;;
50128;SDS011;36026;45.478;9.224;2022-12-20T02:28:20;39.42;;;25.45;;
50128;SDS011;36026;45.478;9.224;2022-12-20T02:31:34;40.65;;;24.58;;
50128;SDS011;36026;45.478;9.224;2022-12-20T02:34:40;43.50;;;25.48;;
50128;SDS011;36026;45.478;9.224;2022-12-20T02:37:46;42.50;;;26.38;;
50128;SDS011;36026;45.478;9.224;2022-12-20T02:40:49;42.03;;;26.08;;
50128;SDS011;36026;45.478;9.224;2022-12-20T02:43:54;44.10;;;27.52;;
50128;SDS011;36026;45.478;9.224;2022-12-20T02:47:18;43.63;;;27.25;;
50128;SDS011;36026;45.478;9.224;2022-12-20T02:50:22;47.65;;;29.00;;
50128;SDS011;36026;45.478;9.224;2022-12-20T02:53:28;47.28;;;28.15;;
50128;SDS011;36026;45.478;9.224;2022-12-20T02:56:31;47.40;;;29.15;;
50128;SDS011;36026;45.478;9.224;2022-12-20T02:59:36;50.92;;;30.48;;
50128;SDS011;36026;45.478;9.224;2022-12-20T03:02:41;49.13;;;29.20;;
50128;SDS011;36026;45.478;9.224;2022-12-20T03:06:03;52.28;;;30.92;;
50128;SDS011;36026;45.478;9.224;2022-12-20T03:09:05;51.20;;;30.70;;
50128;SDS011;36026;45.478;9.224;2022-12-20T03:12:07;49.22;;;29.85;;
50128;SDS011;36026;45.478;9.224;2022-12-20T03:15:10;50.33;;;31.38;;
50128;SDS011;36026;45.478;9.224;2022-12-20T03:18:14;49.72;;;30.40;;
50128;SDS011;36026;45.478;9.224;2022-12-20T03:21:15;49.30;;;30.48;;
50128;SDS011;36026;45.478;9.224;2022-12-20T03:24:17;51.30;;;31.10;;
50128;SDS011;36026;45.478;9.224;2022-12-20T03:27:19;51.67;;;29.80;;
50128;SDS011;36026;45.478;9.224;2022-12-20T03:30:21;52.70;;;30.45;;
50128;SDS011;36026;45.478;9.224;2022-12-20T03:33:24;48.65;;;31.75;;
50128;SDS011;36026;45.478;9.224;2022-12-20T03:36:26;51.88;;;32.20;;
50128;SDS011;36026;45.478;9.224;2022-12-20T03:39:28;51.85;;;33.03;;
50128;SDS011;36026;45.478;9.224;2022-12-20T03:42:29;52.20;;;32.40;;
50128;SDS011;36026;45.478;9.224;2022-12-20T03:45:31;50.60;;;30.95;;
50128;SDS011;36026;45.478;9.224;2022-12-20T03:48:34;51.30;;;31.30;;
50128;SDS011;36026;45.478;9.224;2022-12-20T03:51:36;53.92;;;32.00;;
50128;SDS011;36026;45.478;9.224;2022-12-20T03:54:37;51.15;;;31.88;;
50128;SDS011;36026;45.478;9.224;2022-12-20T03:57:39;53.85;;;32.10;;
50128;SDS011;36026;45.478;9.224;2022-12-20T04:00:41;54.53;;;32.85;;
50128;SDS011;36026;45.478;9.224;2022-12-20T04:03:44;54.67;;;32.63;;
50128;SDS011;36026;45.478;9.224;2022-12-20T04:06:46;54.65;;;31.75;;
50128;SDS011;36026;45.478;9.224;2022-12-20T04:09:48;53.30;;;33.22;;
50128;SDS011;36026;45.478;9.224;2022-12-20T04:12:49;56.33;;;33.30;;
50128;SDS011;36026;45.478;9.224;2022-12-20T04:15:52;50.70;;;31.38;;
50128;SDS011;36026;45.478;9.224;2022-12-20T04:18:55;55.95;;;33.15;;
50128;SDS011;36026;45.478;9.224;2022-12-20T04:21:57;54.10;;;32.00;;
50128;SDS011;36026;45.478;9.224;2022-12-20T04:24:58;55.60;;;31.38;;
50128;SDS011;36026;45.478;9.224;2022-12-20T04:28:00;55.28;;;31.13;;
50128;SDS011;36026;45.478;9.224;2022-12-20T04:31:01;60.03;;;32.65;;
50128;SDS011;36026;45.478;9.224;2022-12-20T04:34:05;52.00;;;31.67;;
50128;SDS011;36026;45.478;9.224;2022-12-20T04:37:06;55.28;;;31.92;;
50128;SDS011;36026;45.478;9.224;2022-12-20T04:40:08;54.47;;;31.83;;
50128;SDS011;36026;45.478;9.224;2022-12-20T04:43:11;54.80;;;31.25;;
50128;SDS011;36026;45.478;9.224;2022-12-20T04:46:12;47.83;;;30.42;;
50128;SDS011;36026;45.478;9.224;2022-12-20T04:49:15;53.83;;;32.00;;
50128;SDS011;36026;45.478;9.224;2022-12-20T04:52:17;52.30;;;30.65;;
50128;SDS011;36026;45.478;9.224;2022-12-20T04:55:36;49.05;;;30.40;;
50128;SDS011;36026;45.478;9.224;2022-12-20T04:58:39;53.42;;;31.80;;
50128;SDS011;36026;45.478;9.224;2022-12-20T05:01:40;53.53;;;30.13;;
50128;SDS011;36026;45.478;9.224;2022-12-20T05:04:43;50.75;;;30.77;;
50128;SDS011;36026;45.478;9.224;2022-12-20T05:07:45;52.50;;;30.45;;
50128;SDS011;36026;45.478;9.224;2022-12-20T05:10:47;50.13;;;31.80;;
50128;SDS011;36026;45.478;9.224;2022-12-20T05:13:49;51.22;;;29.73;;
50128;SDS011;36026;45.478;9.224;2022-12-20T05:16:50;49.40;;;30.17;;
50128;SDS011;36026;45.478;9.224;2022-12-20T05:19:53;49.30;;;27.92;;
50128;SDS011;36026;45.478;9.224;2022-12-20T05:22:55;41.22;;;26.08;;
50128;SDS011;36026;45.478;9.224;2022-12-20T05:26:15;42.67;;;26.58;;
50128;SDS011;36026;45.478;9.224;2022-12-20T05:32:20;42.03;;;26.17;;
50128;SDS011;36026;45.478;9.224;2022-12-20T05:35:23;41.72;;;26.23;;
50128;SDS011;36026;45.478;9.224;2022-12-20T05:38:25;40.95;;;25.98;;
50128;SDS011;36026;45.478;9.224;2022-12-20T05:41:27;41.60;;;26.33;;
50128;SDS011;36026;45.478;9.224;2022-12-20T05:44:29;42.72;;;26.35;;
50128;SDS011;36026;45.478;9.224;2022-12-20T05:47:31;43.47;;;26.50;;
50128;SDS011;36026;45.478;9.224;2022-12-20T05:50:34;44.95;;;26.70;;
50128;SDS011;36026;45.478;9.224;2022-12-20T05:53:36;43.15;;;25.92;;
50128;SDS011;36026;45.478;9.224;2022-12-20T05:56:38;37.00;;;23.67;;
50128;SDS011;36026;45.478;9.224;2022-12-20T05:59:40;39.42;;;23.63;;
50128;SDS011;36026;45.478;9.224;2022-12-20T06:02:41;41.30;;;25.05;;
50128;SDS011;36026;45.478;9.224;2022-12-20T06:05:44;36.83;;;24.20;;
50128;SDS011;36026;45.478;9.224;2022-12-20T06:08:46;40.30;;;24.33;;
50128;SDS011;36026;45.478;9.224;2022-12-20T06:11:48;39.08;;;23.88;;
50128;SDS011;36026;45.478;9.224;2022-12-20T06:14:50;38.55;;;23.70;;
50128;SDS011;36026;45.478;9.224;2022-12-20T06:17:52;40.03;;;23.00;;
50128;SDS011;36026;45.478;9.224;2022-12-20T06:20:55;36.50;;;22.80;;
50128;SDS011;36026;45.478;9.224;2022-12-20T06:23:56;42.38;;;24.05;;
50128;SDS011;36026;45.478;9.224;2022-12-20T06:26:58;36.17;;;22.17;;
50128;SDS011;36026;45.478;9.224;2022-12-20T06:30:00;38.10;;;22.40;;
50128;SDS011;36026;45.478;9.224;2022-12-20T06:33:02;31.02;;;21.02;;
50128;SDS011;36026;45.478;9.224;2022-12-20T06:36:06;34.30;;;20.80;;
50128;SDS011;36026;45.478;9.224;2022-12-20T06:39:08;39.43;;;21.87;;
50128;SDS011;36026;45.478;9.224;2022-12-20T06:42:09;33.53;;;21.75;;
50128;SDS011;36026;45.478;9.224;2022-12-20T06:45:11;36.05;;;22.05;;
50128;SDS011;36026;45.478;9.224;2022-12-20T06:48:13;34.08;;;21.67;;
50128;SDS011;36026;45.478;9.224;2022-12-20T06:51:16;38.20;;;22.13;;
50128;SDS011;36026;45.478;9.224;2022-12-20T06:54:17;33.42;;;21.83;;
50128;SDS011;36026;45.478;9.224;2022-12-20T06:57:19;33.30;;;21.67;;
50128;SDS011;36026;45.478;9.224;2022-12-20T07:00:21;39.63;;;22.15;;
50128;SDS011;36026;45.478;9.224;2022-12-20T07:03:23;33.25;;;22.63;;
50128;SDS011;36026;45.478;9.224;2022-12-20T07:06:26;36.30;;;22.48;;
50128;SDS011;36026;45.478;9.224;2022-12-20T07:09:28;36.42;;;23.00;;
50128;SDS011;36026;45.478;9.224;2022-12-20T07:12:30;36.40;;;22.58;;
50128;SDS011;36026;45.478;9.224;2022-12-20T07:15:32;32.35;;;21.13;;
50128;SDS011;36026;45.478;9.224;2022-12-20T07:18:34;36.70;;;21.63;;
50128;SDS011;36026;45.478;9.224;2022-12-20T07:21:37;33.42;;;20.42;;
50128;SDS011;36026;45.478;9.224;2022-12-20T07:24:38;33.88;;;20.77;;
50128;SDS011;36026;45.478;9.224;2022-12-20T07:27:40;34.05;;;21.17;;
50128;SDS011;36026;45.478;9.224;2022-12-20T07:30:42;34.63;;;21.23;;
50128;SDS011;36026;45.478;9.224;2022-12-20T07:33:43;37.88;;;22.33;;
50128;SDS011;36026;45.478;9.224;2022-12-20T07:36:46;32.33;;;20.77;;
50128;SDS011;36026;45.478;9.224;2022-12-20T07:39:49;29.90;;;18.38;;
50128;SDS011;36026;45.478;9.224;2022-12-20T07:42:51;27.27;;;17.75;;
50128;SDS011;36026;45.478;9.224;2022-12-20T07:45:53;29.33;;;18.10;;
50128;SDS011;36026;45.478;9.224;2022-12-20T07:48:55;25.25;;;17.35;;
50128;SDS011;36026;45.478;9.224;2022-12-20T07:51:58;24.52;;;17.27;;
50128;SDS011;36026;45.478;9.224;2022-12-20T07:55:02;25.52;;;15.88;;
50128;SDS011;36026;45.478;9.224;2022-12-20T07:58:07;26.00;;;15.65;;
50128;SDS011;36026;45.478;9.224;2022-12-20T08:01:09;26.98;;;16.92;;
50128;SDS011;36026;45.478;9.224;2022-12-20T08:04:13;26.55;;;17.73;;
50128;SDS011;36026;45.478;9.224;2022-12-20T08:07:19;26.65;;;17.00;;
50128;SDS011;36026;45.478;9.224;2022-12-20T08:10:21;25.85;;;15.95;;
50128;SDS011;36026;45.478;9.224;2022-12-20T08:13:22;25.33;;;15.85;;
50128;SDS011;36026;45.478;9.224;2022-12-20T08:16:24;25.25;;;16.63;;
50128;SDS011;36026;45.478;9.224;2022-12-20T08:19:26;27.60;;;16.42;;
50128;SDS011;36026;45.478;9.224;2022-12-20T08:22:29;25.17;;;17.38;;
50128;SDS011;36026;45.478;9.224;2022-12-20T08:25:31;28.42;;;17.38;;
50128;SDS011;36026;45.478;9.224;2022-12-20T08:28:34;25.98;;;16.27;;
50128;SDS011;36026;45.478;9.224;2022-12-20T08:31:36;31.73;;;17.90;;
50128;SDS011;36026;45.478;9.224;2022-12-20T08:34:38;33.75;;;20.67;;
50128;SDS011;36026;45.478;9.224;2022-12-20T08:37:41;34.28;;;19.52;;
50128;SDS011;36026;45.478;9.224;2022-12-20T08:40:43;29.15;;;18.98;;
50128;SDS011;36026;45.478;9.224;2022-12-20T08:43:44;30.65;;;19.83;;
50128;SDS011;36026;45.478;9.224;2022-12-20T08:46:46;33.28;;;20.10;;
50128;SDS011;36026;45.478;9.224;2022-12-20T08:49:47;33.50;;;19.23;;
50128;SDS011;36026;45.478;9.224;2022-12-20T08:52:50;29.73;;;18.90;;
50128;SDS011;36026;45.478;9.224;2022-12-20T08:55:52;28.70;;;19.08;;
50128;SDS011;36026;45.478;9.224;2022-12-20T08:58:54;43.10;;;21.08;;
50128;SDS011;36026;45.478;9.224;2022-12-20T09:01:56;36.03;;;20.52;;
50128;SDS011;36026;45.478;9.224;2022-12-20T09:04:57;28.60;;;19.02;;
50128;SDS011;36026;45.478;9.224;2022-12-20T09:08:00;30.38;;;19.95;;
50128;SDS011;36026;45.478;9.224;2022-12-20T09:11:03;32.28;;;19.73;;
50128;SDS011;36026;45.478;9.224;2022-12-20T09:14:05;32.80;;;18.20;;
50128;SDS011;36026;45.478;9.224;2022-12-20T09:17:07;31.20;;;17.92;;
50128;SDS011;36026;45.478;9.224;2022-12-20T09:20:09;26.85;;;17.70;;
50128;SDS011;36026;45.478;9.224;2022-12-20T09:23:12;32.47;;;18.45;;
50128;SDS011;36026;45.478;9.224;2022-12-20T09:26:14;29.02;;;17.92;;
50128;SDS011;36026;45.478;9.224;2022-12-20T09:29:16;31.25;;;18.83;;
50128;SDS011;36026;45.478;9.224;2022-12-20T09:32:18;27.48;;;18.10;;
50128;SDS011;36026;45.478;9.224;2022-12-20T09:35:20;30.08;;;19.88;;
50128;SDS011;36026;45.478;9.224;2022-12-20T09:38:23;26.58;;;17.08;;
50128;SDS011;36026;45.478;9.224;2022-12-20T09:41:27;26.67;;;18.13;;
50128;SDS011;36026;45.478;9.224;2022-12-20T09:44:32;27.13;;;17.73;;
50128;SDS011;36026;45.478;9.224;2022-12-20T09:47:36;27.17;;;17.17;;
50128;SDS011;36026;45.478;9.224;2022-12-20T09:50:41;28.63;;;19.15;;
50128;SDS011;36026;45.478;9.224;2022-12-20T09:53:50;28.40;;;17.42;;
50128;SDS011;36026;45.478;9.224;2022-12-20T09:56:56;27.45;;;17.73;;
50128;SDS011;36026;45.478;9.224;2022-12-20T10:00:00;25.70;;;16.38;;
50128;SDS011;36026;45.478;9.224;2022-12-20T10:03:02;30.30;;;17.00;;
50128;SDS011;36026;45.478;9.224;2022-12-20T10:06:05;24.92;;;16.35;;
50128;SDS011;36026;45.478;9.224;2022-12-20T10:09:16;24.95;;;17.40;;
50128;SDS011;36026;45.478;9.224;2022-12-20T10:12:32;26.42;;;16.40;;
50128;SDS011;36026;45.478;9.224;2022-12-20T10:15:43;25.08;;;16.00;;
50128;SDS011;36026;45.478;9.224;2022-12-20T10:18:51;26.90;;;16.27;;
50128;SDS011;36026;45.478;9.224;2022-12-20T10:22:00;26.67;;;16.75;;
50128;SDS011;36026;45.478;9.224;2022-12-20T10:25:12;25.42;;;16.70;;
50128;SDS011;36026;45.478;9.224;2022-12-20T10:28:16;24.65;;;16.65;;
50128;SDS011;36026;45.478;9.224;2022-12-20T10:31:20;23.92;;;17.25;;
50128;SDS011;36026;45.478;9.224;2022-12-20T10:34:21;26.52;;;17.52;;
50128;SDS011;36026;45.478;9.224;2022-12-20T10:37:23;26.60;;;16.33;;
50128;SDS011;36026;45.478;9.224;2022-12-20T10:40:27;61.22;;;35.97;;
50128;SDS011;36026;45.478;9.224;2022-12-20T10:43:36;48.45;;;30.20;;
50128;SDS011;36026;45.478;9.224;2022-12-20T10:46:41;31.23;;;18.92;;
50128;SDS011;36026;45.478;9.224;2022-12-20T10:49:44;24.10;;;15.82;;
50128;SDS011;36026;45.478;9.224;2022-12-20T10:53:00;27.33;;;15.70;;
50128;SDS011;36026;45.478;9.224;2022-12-20T10:56:11;26.50;;;16.15;;
50128;SDS011;36026;45.478;9.224;2022-12-20T10:59:22;25.40;;;16.67;;
50128;SDS011;36026;45.478;9.224;2022-12-20T11:02:29;23.13;;;15.88;;
50128;SDS011;36026;45.478;9.224;2022-12-20T11:05:32;23.60;;;15.82;;
50128;SDS011;36026;45.478;9.224;2022-12-20T11:08:34;24.08;;;15.30;;
50128;SDS011;36026;45.478;9.224;2022-12-20T11:11:37;21.23;;;14.70;;
50128;SDS011;36026;45.478;9.224;2022-12-20T11:14:39;24.10;;;15.45;;
50128;SDS011;36026;45.478;9.224;2022-12-20T11:17:42;19.60;;;14.13;;
50128;SDS011;36026;45.478;9.224;2022-12-20T11:20:49;27.77;;;15.48;;
50128;SDS011;36026;45.478;9.224;2022-12-20T11:23:55;23.33;;;15.55;;
50128;SDS011;36026;45.478;9.224;2022-12-20T11:27:12;21.55;;;14.98;;
50128;SDS011;36026;45.478;9.224;2022-12-20T11:30:19;23.42;;;15.20;;
50128;SDS011;36026;45.478;9.224;2022-12-20T11:33:35;22.95;;;14.70;;
50128;SDS011;36026;45.478;9.224;2022-12-20T11:36:49;21.17;;;14.32;;
50128;SDS011;36026;45.478;9.224;2022-12-20T11:40:05;23.27;;;15.10;;
50128;SDS011;36026;45.478;9.224;2022-12-20T11:43:21;22.23;;;14.68;;
50128;SDS011;36026;45.478;9.224;2022-12-20T11:46:31;22.40;;;16.13;;
50128;SDS011;36026;45.478;9.224;2022-12-20T11:49:51;21.73;;;14.75;;
50128;SDS011;36026;45.478;9.224;2022-12-20T11:52:59;25.80;;;15.27;;
50128;SDS011;36026;45.478;9.224;2022-12-20T11:56:05;33.35;;;17.42;;
50128;SDS011;36026;45.478;9.224;2022-12-20T11:59:11;27.88;;;16.98;;
50128;SDS011;36026;45.478;9.224;2022-12-20T12:02:20;24.30;;;15.40;;
50128;SDS011;36026;45.478;9.224;2022-12-20T12:05:25;33.55;;;20.17;;
50128;SDS011;36026;45.478;9.224;2022-12-20T12:08:31;51.25;;;29.27;;
50128;SDS011;36026;45.478;9.224;2022-12-20T12:11:39;41.90;;;29.63;;
50128;SDS011;36026;45.478;9.224;2022-12-20T12:14:45;49.03;;;30.38;;
50128;SDS011;36026;45.478;9.224;2022-12-20T12:17:51;40.92;;;26.08;;
50128;SDS011;36026;45.478;9.224;2022-12-20T12:21:00;39.35;;;25.50;;
50128;SDS011;36026;45.478;9.224;2022-12-20T12:24:04;39.95;;;26.85;;
50128;SDS011;36026;45.478;9.224;2022-12-20T12:27:12;42.25;;;26.08;;
50128;SDS011;36026;45.478;9.224;2022-12-20T12:30:23;37.90;;;24.80;;
50128;SDS011;36026;45.478;9.224;2022-12-20T12:33:27;37.83;;;24.40;;
50128;SDS011;36026;45.478;9.224;2022-12-20T12:36:37;43.58;;;25.55;;
50128;SDS011;36026;45.478;9.224;2022-12-20T12:39:50;41.83;;;25.48;;
50128;SDS011;36026;45.478;9.224;2022-12-20T12:46:09;36.13;;;23.20;;
50128;SDS011;36026;45.478;9.224;2022-12-20T12:49:14;34.17;;;22.70;;
50128;SDS011;36026;45.478;9.224;2022-12-20T12:52:27;34.80;;;24.02;;
50128;SDS011;36026;45.478;9.224;2022-12-20T12:55:36;36.88;;;23.45;;
50128;SDS011;36026;45.478;9.224;2022-12-20T12:58:40;38.25;;;23.75;;
50128;SDS011;36026;45.478;9.224;2022-12-20T13:01:49;35.97;;;22.95;;
50128;SDS011;36026;45.478;9.224;2022-12-20T13:04:53;36.30;;;23.23;;
50128;SDS011;36026;45.478;9.224;2022-12-20T13:07:56;43.17;;;25.02;;
50128;SDS011;36026;45.478;9.224;2022-12-20T13:11:00;36.17;;;23.67;;
50128;SDS011;36026;45.478;9.224;2022-12-20T13:14:16;36.75;;;23.10;;
50128;SDS011;36026;45.478;9.224;2022-12-20T13:17:51;39.88;;;23.77;;
50128;SDS011;36026;45.478;9.224;2022-12-20T13:27:46;53.50;;;24.98;;
50128;SDS011;36026;45.478;9.224;2022-12-20T13:30:49;94.80;;;28.20;;
50128;SDS011;36026;45.478;9.224;2022-12-20T13:34:36;37.50;;;24.13;;
50128;SDS011;36026;45.478;9.224;2022-12-20T13:37:55;39.13;;;23.75;;
50128;SDS011;36026;45.478;9.224;2022-12-20T13:40:58;37.85;;;22.65;;
50128;SDS011;36026;45.478;9.224;2022-12-20T13:44:07;32.25;;;22.20;;
50128;SDS011;36026;45.478;9.224;2022-12-20T13:47:14;34.72;;;22.40;;
50128;SDS011;36026;45.478;9.224;2022-12-20T13:50:26;36.50;;;21.63;;
50128;SDS011;36026;45.478;9.224;2022-12-20T13:53:31;31.38;;;21.52;;
50128;SDS011;36026;45.478;9.224;2022-12-20T13:56:34;33.70;;;22.35;;
50128;SDS011;36026;45.478;9.224;2022-12-20T13:59:38;32.75;;;22.55;;
50128;SDS011;36026;45.478;9.224;2022-12-20T14:02:40;36.65;;;22.73;;
50128;SDS011;36026;45.478;9.224;2022-12-20T14:05:43;37.70;;;22.60;;
50128;SDS011;36026;45.478;9.224;2022-12-20T14:08:46;34.60;;;23.88;;
50128;SDS011;36026;45.478;9.224;2022-12-20T14:11:49;39.35;;;23.45;;
50128;SDS011;36026;45.478;9.224;2022-12-20T14:14:50;36.95;;;24.48;;
50128;SDS011;36026;45.478;9.224;2022-12-20T14:17:53;39.03;;;24.90;;
50128;SDS011;36026;45.478;9.224;2022-12-20T14:20:57;33.83;;;24.10;;
50128;SDS011;36026;45.478;9.224;2022-12-20T14:24:00;45.38;;;27.70;;
50128;SDS011;36026;45.478;9.224;2022-12-20T14:27:02;46.83;;;30.17;;
50128;SDS011;36026;45.478;9.224;2022-12-20T14:30:04;48.00;;;29.80;;
50128;SDS011;36026;45.478;9.224;2022-12-20T14:33:13;39.30;;;25.77;;
50128;SDS011;36026;45.478;9.224;2022-12-20T14:36:32;39.72;;;25.05;;
50128;SDS011;36026;45.478;9.224;2022-12-20T14:39:35;41.75;;;24.27;;
50128;SDS011;36026;45.478;9.224;2022-12-20T14:42:37;38.00;;;25.42;;
50128;SDS011;36026;45.478;9.224;2022-12-20T14:45:39;36.95;;;26.40;;
50128;SDS011;36026;45.478;9.224;2022-12-20T14:48:41;37.45;;;23.63;;
50128;SDS011;36026;45.478;9.224;2022-12-20T14:51:44;37.88;;;26.25;;
50128;SDS011;36026;45.478;9.224;2022-12-20T14:54:47;35.42;;;23.42;;
50128;SDS011;36026;45.478;9.224;2022-12-20T14:57:51;35.30;;;23.92;;
50128;SDS011;36026;45.478;9.224;2022-12-20T15:00:54;33.40;;;23.08;;
50128;SDS011;36026;45.478;9.224;2022-12-20T15:03:58;36.42;;;23.45;;
50128;SDS011;36026;45.478;9.224;2022-12-20T15:07:03;34.92;;;23.30;;
50128;SDS011;36026;45.478;9.224;2022-12-20T15:10:06;32.65;;;23.20;;
50128;SDS011;36026;45.478;9.224;2022-12-20T15:13:10;34.58;;;24.00;;
50128;SDS011;36026;45.478;9.224;2022-12-20T15:16:15;32.33;;;22.50;;
50128;SDS011;36026;45.478;9.224;2022-12-20T15:19:17;34.25;;;22.75;;
50128;SDS011;36026;45.478;9.224;2022-12-20T15:22:20;37.50;;;23.23;;
50128;SDS011;36026;45.478;9.224;2022-12-20T15:25:22;130.38;;;77.60;;
50128;SDS011;36026;45.478;9.224;2022-12-20T15:28:24;64.43;;;39.97;;
50128;SDS011;36026;45.478;9.224;2022-12-20T15:31:27;83.40;;;49.45;;
50128;SDS011;36026;45.478;9.224;2022-12-20T15:34:31;40.33;;;26.25;;
50128;SDS011;36026;45.478;9.224;2022-12-20T15:37:35;35.47;;;23.42;;
50128;SDS011;36026;45.478;9.224;2022-12-20T15:40:38;35.70;;;21.67;;
50128;SDS011;36026;45.478;9.224;2022-12-20T15:43:39;32.85;;;21.95;;
50128;SDS011;36026;45.478;9.224;2022-12-20T15:46:42;35.47;;;23.77;;
50128;SDS011;36026;45.478;9.224;2022-12-20T15:49:44;33.92;;;23.90;;
50128;SDS011;36026;45.478;9.224;2022-12-20T15:52:47;35.17;;;22.13;;
50128;SDS011;36026;45.478;9.224;2022-12-20T15:55:49;34.58;;;23.77;;
50128;SDS011;36026;45.478;9.224;2022-12-20T15:58:51;37.85;;;23.50;;
50128;SDS011;36026;45.478;9.224;2022-12-20T16:01:53;30.70;;;22.60;;
50128;SDS011;36026;45.478;9.224;2022-12-20T16:04:55;31.17;;;22.20;;
50128;SDS011;36026;45.478;9.224;2022-12-20T16:07:59;34.70;;;21.42;;
50128;SDS011;36026;45.478;9.224;2022-12-20T16:11:00;32.53;;;20.90;;
50128;SDS011;36026;45.478;9.224;2022-12-20T16:14:02;35.47;;;23.40;;
50128;SDS011;36026;45.478;9.224;2022-12-20T16:17:04;34.65;;;23.08;;
50128;SDS011;36026;45.478;9.224;2022-12-20T16:20:07;33.85;;;22.77;;
50128;SDS011;36026;45.478;9.224;2022-12-20T16:23:14;31.10;;;22.15;;
50128;SDS011;36026;45.478;9.224;2022-12-20T16:26:17;32.55;;;22.35;;
50128;SDS011;36026;45.478;9.224;2022-12-20T16:29:20;38.03;;;23.50;;
50128;SDS011;36026;45.478;9.224;2022-12-20T16:32:22;34.13;;;22.55;;
50128;SDS011;36026;45.478;9.224;2022-12-20T16:35:27;35.35;;;24.00;;
50128;SDS011;36026;45.478;9.224;2022-12-20T16:38:32;35.58;;;23.42;;
50128;SDS011;36026;45.478;9.224;2022-12-20T16:41:35;36.57;;;23.60;;
50128;SDS011;36026;45.478;9.224;2022-12-20T16:44:38;36.13;;;23.30;;
50128;SDS011;36026;45.478;9.224;2022-12-20T16:47:43;35.88;;;23.63;;
50128;SDS011;36026;45.478;9.224;2022-12-20T16:50:45;33.65;;;23.33;;
50128;SDS011;36026;45.478;9.224;2022-12-20T16:53:48;34.47;;;23.70;;
50128;SDS011;36026;45.478;9.224;2022-12-20T16:56:50;36.63;;;24.48;;
50128;SDS011;36026;45.478;9.224;2022-12-20T16:59:55;36.47;;;25.20;;
50128;SDS011;36026;45.478;9.224;2022-12-20T17:02:56;36.33;;;24.13;;
50128;SDS011;36026;45.478;9.224;2022-12-20T17:05:58;33.50;;;24.02;;
50128;SDS011;36026;45.478;9.224;2022-12-20T17:09:01;36.85;;;24.92;;
50128;SDS011;36026;45.478;9.224;2022-12-20T17:12:04;38.83;;;24.60;;
50128;SDS011;36026;45.478;9.224;2022-12-20T17:15:12;36.03;;;24.48;;
50128;SDS011;36026;45.478;9.224;2022-12-20T17:18:16;40.53;;;24.65;;
50128;SDS011;36026;45.478;9.224;2022-12-20T17:21:22;36.45;;;24.50;;
50128;SDS011;36026;45.478;9.224;2022-12-20T17:24:27;38.25;;;23.25;;
50128;SDS011;36026;45.478;9.224;2022-12-20T17:27:28;36.25;;;23.70;;
50128;SDS011;36026;45.478;9.224;2022-12-20T17:30:30;36.92;;;23.65;;
50128;SDS011;36026;45.478;9.224;2022-12-20T17:33:32;36.97;;;24.65;;
50128;SDS011;36026;45.478;9.224;2022-12-20T17:36:34;40.55;;;25.63;;
50128;SDS011;36026;45.478;9.224;2022-12-20T17:39:37;36.90;;;24.45;;
50128;SDS011;36026;45.478;9.224;2022-12-20T17:42:38;37.33;;;24.17;;
50128;SDS011;36026;45.478;9.224;2022-12-20T17:45:41;41.63;;;23.75;;
50128;SDS011;36026;45.478;9.224;2022-12-20T17:48:42;35.78;;;23.02;;
50128;SDS011;36026;45.478;9.224;2022-12-20T17:51:44;37.22;;;23.67;;
50128;SDS011;36026;45.478;9.224;2022-12-20T17:54:48;33.88;;;21.83;;
50128;SDS011;36026;45.478;9.224;2022-12-20T17:57:49;37.00;;;21.77;;
50128;SDS011;36026;45.478;9.224;2022-12-20T18:00:51;31.58;;;19.88;;
50128;SDS011;36026;45.478;9.224;2022-12-20T18:03:54;30.80;;;21.08;;
50128;SDS011;36026;45.478;9.224;2022-12-20T18:06:56;33.55;;;21.55;;
50128;SDS011;36026;45.478;9.224;2022-12-20T18:09:59;34.20;;;21.15;;
50128;SDS011;36026;45.478;9.224;2022-12-20T18:13:01;35.42;;;22.80;;